Riverwatch, Tennessee
Current Conditions -  °F | °C
As of 2:55 PM on Saturday 20 Dec 2014 (Local Time) from KSRB Reporting Station
Clear Clear  
Wind Chill: 44°   Ceiling: Unl
Heat Index: 46°   Visibility: 10mi
Dew Point: 28°   Wind: 5mph
Humidity: 50%   Direction: 50°NE
Pressure: 30.19"   Gusts: NA
Location:  35.9428°N, 85.4474°W
Report Text: KSRB 202055Z AUTO 05004KT 10SM CLR 08/M02 A3019 RMK
Loading
Personal Weather Stations






























Interactive Weather Map New forecast layout! Learn more

10-Day Weather Forecast

Advertisements
Track Severe Weather on mobile